createdAt,value
2023-03-01T00:04:33.469Z,4.24
2023-03-01T00:09:29.992Z,4.24
2023-03-01T00:14:26.594Z,4.26
2023-03-01T00:20:37.232Z,4.33
2023-03-01T00:25:33.740Z,4.37
2023-03-01T00:30:30.302Z,4.33
2023-03-01T00:41:37.456Z,4.28
2023-03-01T00:46:34.468Z,4.33
2023-03-01T00:51:30.529Z,4.3
2023-03-01T00:56:27.072Z,4.3
2023-03-01T01:02:37.730Z,4.27
2023-03-01T01:07:34.243Z,4.3
2023-03-01T01:12:30.721Z,4.36
2023-03-01T01:17:27.263Z,4.33
2023-03-01T01:23:37.967Z,4.3
2023-03-01T01:28:34.555Z,4.27
2023-03-01T01:33:31.012Z,4.33
2023-03-01T01:38:27.572Z,4.36
2023-03-01T01:44:38.232Z,4.27
2023-03-01T01:49:34.741Z,4.21
2023-03-01T01:54:31.273Z,4.21
2023-03-01T02:05:38.449Z,4.15
2023-03-01T02:10:35.051Z,4.15
2023-03-01T02:15:31.556Z,4.15
2023-03-01T02:20:28.122Z,4.18
2023-03-01T02:26:38.814Z,4.18
2023-03-01T02:31:35.295Z,4.24
2023-03-01T02:36:32.315Z,4.24
2023-03-01T02:41:28.327Z,4.12
2023-03-01T02:47:39.005Z,4.09
2023-03-01T02:52:35.597Z,4.03
2023-03-01T02:57:32.118Z,4.12
2023-03-01T03:02:28.697Z,4.18
2023-03-01T03:08:39.303Z,4.12
2023-03-01T03:13:35.858Z,4.09
2023-03-01T03:18:32.307Z,4.09
2023-03-01T03:23:28.945Z,4.12
2023-03-01T03:29:39.617Z,4.12
2023-03-01T03:34:36.070Z,4.12
2023-03-01T03:39:32.620Z,4.09
2023-03-01T03:44:29.128Z,4
2023-03-01T03:50:39.812Z,4
2023-03-01T03:55:36.316Z,4
2023-03-01T04:00:32.828Z,3.95
2023-03-01T04:05:29.362Z,4
2023-03-01T04:10:25.965Z,4.06
2023-03-01T04:16:36.671Z,4.06
2023-03-01T04:21:33.105Z,3.98
2023-03-01T04:26:30.188Z,4.03
2023-03-01T04:31:26.261Z,4.09
2023-03-01T04:37:36.906Z,4.15
2023-03-01T04:42:33.382Z,4.09
2023-03-01T04:47:29.985Z,4
2023-03-01T04:52:26.531Z,4
2023-03-01T04:58:37.132Z,4.03
2023-03-01T05:03:33.604Z,4
2023-03-01T05:08:30.245Z,3.92
2023-03-01T05:13:26.687Z,3.89
2023-03-01T05:19:37.337Z,3.95
2023-03-01T05:24:33.876Z,3.86
2023-03-01T05:29:30.352Z,3.92
2023-03-01T05:34:26.994Z,3.86
2023-03-01T05:40:37.679Z,3.86
2023-03-01T05:45:34.112Z,3.95
2023-03-01T05:50:30.646Z,3.92
2023-03-01T05:55:29.013Z,3.95
2023-03-01T06:01:37.905Z,3.95
2023-03-01T06:06:34.915Z,3.92
2023-03-01T06:11:30.898Z,3.84
2023-03-01T06:16:27.559Z,3.78
2023-03-01T06:22:38.140Z,3.84
2023-03-01T06:27:34.666Z,3.84
2023-03-01T06:32:31.184Z,3.81
2023-03-01T06:37:27.827Z,3.86
2023-03-01T06:43:38.378Z,3.84
2023-03-01T06:48:34.951Z,3.81
2023-03-01T06:53:31.416Z,3.89
2023-03-01T06:58:28.088Z,3.92
2023-03-01T07:04:38.783Z,3.86
2023-03-01T07:09:35.192Z,3.89
2023-03-01T07:14:31.667Z,3.95
2023-03-01T07:19:28.237Z,3.98
2023-03-01T07:25:38.981Z,4
2023-03-01T07:30:35.543Z,4.09
2023-03-01T07:35:31.977Z,4.15
2023-03-01T07:40:28.584Z,4.27
2023-03-01T07:46:39.225Z,4.39
2023-03-01T07:51:35.739Z,4.51
2023-03-01T07:56:32.644Z,4.58
2023-03-01T08:01:28.828Z,4.62
2023-03-01T08:07:39.402Z,4.63
2023-03-01T08:12:35.990Z,4.64
2023-03-01T08:17:32.572Z,4.57
2023-03-01T08:22:29.075Z,4.53
2023-03-01T08:28:39.720Z,4.52
2023-03-01T08:33:36.250Z,4.45
2023-03-01T08:38:32.823Z,4.38
2023-03-01T08:43:29.349Z,4.45
2023-03-01T08:48:25.866Z,4.28
2023-03-01T08:54:36.488Z,4.31
2023-03-01T08:59:33.041Z,4.26
2023-03-01T09:04:29.589Z,4.25
2023-03-01T09:09:26.096Z,4.25
2023-03-01T09:15:36.722Z,4.35
2023-03-01T09:20:33.260Z,4.25
2023-03-01T09:25:29.815Z,4.22
2023-03-01T09:30:26.347Z,4.25
2023-03-01T09:36:37.021Z,4.21
2023-03-01T09:46:30.516Z,4
2023-03-01T09:51:26.571Z,3.99
2023-03-01T09:57:37.336Z,3.97
2023-03-01T10:02:33.796Z,3.93
2023-03-01T10:07:30.298Z,3.98
2023-03-01T10:12:26.971Z,3.99
2023-03-01T10:18:37.557Z,3.92
2023-03-01T10:23:34.068Z,3.92
2023-03-01T10:28:30.563Z,3.89
2023-03-01T10:33:27.294Z,3.9
2023-03-01T10:38:31.906Z,3.94
2023-03-01T10:43:28.396Z,3.99
2023-03-01T10:49:39.026Z,3.9
2023-03-01T10:54:35.635Z,3.96
2023-03-01T10:59:32.056Z,3.87
2023-03-01T11:04:28.762Z,3.85
2023-03-01T11:10:39.272Z,3.83
2023-03-01T11:15:35.799Z,3.95
2023-03-01T11:20:32.379Z,3.92
2023-03-01T11:25:28.956Z,3.87
2023-03-01T11:31:46.567Z,3.83
2023-03-01T11:36:36.108Z,4.09
2023-03-01T11:41:33.051Z,4.1
2023-03-01T11:46:29.552Z,4.07
2023-03-01T11:52:39.899Z,4.11
2023-03-01T11:57:43.526Z,4.11
2023-03-01T12:02:32.946Z,4.02
2023-03-01T12:07:29.438Z,4.18
2023-03-01T12:12:26.024Z,4.14
2023-03-01T12:18:36.653Z,4.17
2023-03-01T12:23:33.135Z,4.04
2023-03-01T12:28:29.691Z,4.02
2023-03-01T12:33:26.224Z,4
2023-03-01T12:39:36.885Z,3.98
2023-03-01T12:44:33.370Z,4.01
2023-03-01T12:49:29.916Z,4.08
2023-03-01T12:54:26.544Z,4.35
2023-03-01T13:00:37.093Z,4.31
2023-03-01T13:05:33.661Z,4.22
2023-03-01T13:10:30.258Z,4.58
2023-03-01T13:21:37.411Z,4.01
2023-03-01T13:26:33.970Z,4.29
2023-03-01T13:31:30.489Z,4.13
2023-03-01T13:36:27.052Z,4.38
2023-03-01T13:42:37.910Z,4.24
2023-03-01T13:47:34.190Z,4.36
2023-03-01T13:52:30.692Z,4.09
2023-03-01T13:57:27.244Z,4.04
2023-03-01T14:03:37.983Z,4.06
2023-03-01T14:08:34.445Z,4.21
2023-03-01T14:13:31.112Z,4.25
2023-03-01T14:18:27.519Z,4.31
2023-03-01T14:24:38.190Z,4.51
2023-03-01T14:29:34.691Z,4.27
2023-03-01T14:34:31.276Z,4.14
2023-03-01T14:45:38.509Z,4.77
2023-03-01T14:50:35.227Z,4.26
2023-03-01T14:55:31.485Z,4.17
2023-03-01T15:00:28.306Z,4.26
2023-03-01T15:06:38.801Z,4.11
2023-03-01T15:11:35.322Z,4.32
2023-03-01T15:16:32.276Z,4.21
2023-03-01T15:21:28.481Z,4.04
2023-03-01T15:27:38.947Z,4.15
2023-03-01T15:32:35.489Z,4.01
2023-03-01T15:37:32.025Z,3.9
2023-03-01T15:42:28.645Z,3.93
2023-03-01T15:48:39.304Z,4.04
2023-03-01T15:53:39.495Z,4.13
2023-03-01T15:58:32.334Z,4.05
2023-03-01T16:03:28.864Z,3.98
2023-03-01T16:09:39.592Z,4.02
2023-03-01T16:14:36.054Z,3.92
2023-03-01T16:19:32.614Z,4.14
2023-03-01T16:24:29.094Z,3.76
2023-03-01T16:29:25.704Z,3.93
2023-03-01T16:35:36.397Z,3.92
2023-03-01T16:40:32.866Z,3.71
2023-03-01T16:45:29.659Z,3.78
2023-03-01T16:51:40.037Z,3.63
2023-03-01T16:56:36.592Z,3.58
2023-03-01T17:01:33.646Z,3.51
2023-03-01T17:06:29.676Z,3.29
2023-03-01T17:12:40.296Z,3.18
2023-03-01T17:17:36.921Z,3.12
2023-03-01T17:22:33.369Z,3.07
2023-03-01T17:27:29.945Z,3.08
2023-03-01T17:32:26.647Z,3.11
2023-03-01T17:38:37.122Z,3.18
2023-03-01T17:43:33.657Z,3.06
2023-03-01T17:48:30.179Z,3.1
2023-03-01T17:53:26.688Z,3.22
2023-03-01T17:59:37.357Z,3.12
2023-03-01T18:04:33.872Z,3.09
2023-03-01T18:09:30.418Z,3.24
2023-03-01T18:14:27.099Z,3.24
2023-03-01T18:20:37.624Z,3.13
2023-03-01T18:25:34.566Z,3.09
2023-03-01T18:30:30.775Z,3.13
2023-03-01T18:35:27.271Z,3.23
2023-03-01T18:41:37.950Z,3.26
2023-03-01T18:46:37.002Z,3.24
2023-03-01T18:51:31.467Z,3.45
2023-03-01T18:56:27.530Z,3.47
2023-03-01T19:02:38.317Z,3.37
2023-03-01T19:07:34.737Z,3.35
2023-03-01T19:12:31.213Z,3.35
2023-03-01T19:23:38.459Z,3.53
2023-03-01T19:28:36.055Z,3.48
2023-03-01T19:33:31.472Z,3.47
2023-03-01T19:38:28.054Z,3.52
2023-03-01T19:44:38.695Z,3.5
2023-03-01T19:49:35.243Z,3.41
2023-03-01T19:54:31.719Z,3.39
2023-03-01T19:59:28.374Z,3.7
2023-03-01T20:05:38.930Z,3.41
2023-03-01T20:10:35.509Z,3.47
2023-03-01T20:15:31.971Z,3.39
2023-03-01T20:20:28.594Z,3.41
2023-03-01T20:26:39.210Z,3.44
2023-03-01T20:31:35.927Z,3.42
2023-03-01T20:36:32.333Z,3.45
2023-03-01T20:41:28.857Z,3.49
2023-03-01T20:47:39.554Z,3.54
2023-03-01T20:52:45.862Z,3.45
2023-03-01T20:57:32.615Z,3.43
2023-03-01T21:02:29.068Z,3.37
2023-03-01T21:07:25.752Z,3.5
2023-03-01T21:13:36.218Z,3.59
2023-03-01T21:18:32.837Z,3.54
2023-03-01T21:23:29.333Z,3.77
2023-03-01T21:28:25.840Z,3.81
2023-03-01T21:34:36.521Z,3.82
2023-03-01T21:39:33.074Z,3.69
2023-03-01T21:44:29.682Z,3.73
2023-03-01T21:49:26.130Z,3.61
2023-03-01T21:55:36.797Z,3.72
2023-03-01T22:00:33.338Z,3.82
2023-03-01T22:05:29.882Z,3.98
2023-03-01T22:11:40.469Z,3.75
2023-03-01T22:16:37.112Z,3.96
2023-03-01T22:31:26.672Z,3.93
2023-03-01T22:37:37.274Z,3.84
2023-03-01T22:42:33.902Z,3.81
2023-03-01T22:47:30.327Z,3.85
2023-03-01T22:52:26.929Z,3.93
2023-03-01T22:58:37.620Z,3.9
2023-03-01T23:02:28.354Z,3.53
2023-03-01T23:08:38.874Z,3.86
2023-03-01T23:13:35.345Z,3.82
2023-03-01T23:18:31.900Z,3.76
2023-03-01T23:23:28.389Z,3.92
2023-03-01T23:29:39.392Z,3.8
2023-03-01T23:34:35.630Z,3.98
2023-03-01T23:39:32.201Z,3.79
2023-03-01T23:44:28.730Z,3.76
2023-03-01T23:50:39.348Z,3.74
2023-03-01T23:55:35.964Z,3.68
